Time;durP1;ratioP1;P1;durP2;ratioP2;P2;SDS_P1;SDS_P2;PMS_P1;PMS_P2;Temp;Humidity;BMP_temperature;BMP_pressure;BME280_temperature;BME280_humidity;BME280_pressure;Samples;Min_cycle;Max_cycle;Signal;HPM_P1;HPM_P2
2021/04/16 00:00:36;;;;;;;23.75;17.17;;;;;;;3.80;87.45;98869.59;2168120;82;21697;-84
2021/04/16 00:03:39;;;;;;;22.32;15.65;;;;;;;3.80;87.12;98870.08;2168020;81;21557;-86
2021/04/16 00:06:41;;;;;;;26.33;18.65;;;;;;;3.81;87.39;98866.53;2145286;83;21291;-85
2021/04/16 00:09:43;;;;;;;22.48;17.45;;;;;;;3.85;87.15;98864.03;2145273;83;21149;-84
2021/04/16 00:12:45;;;;;;;21.77;14.78;;;;;;;3.81;87.14;98860.05;2158353;82;21757;-85
2021/04/16 00:15:46;;;;;;;23.52;17.50;;;;;;;3.79;87.20;98855.48;2143033;83;21311;-85
2021/04/16 00:18:48;;;;;;;21.50;15.53;;;;;;;3.76;87.23;98858.36;2142693;83;21344;-84
2021/04/16 00:21:50;;;;;;;26.27;18.35;;;;;;;3.80;87.31;98847.58;2143129;83;21328;-85
2021/04/16 00:24:52;;;;;;;23.55;16.37;;;;;;;3.81;87.42;98849.69;2142841;83;21327;-85
2021/04/16 00:27:54;;;;;;;24.57;17.85;;;;;;;3.79;87.51;98851.60;2142648;83;21763;-85
2021/04/16 00:30:56;;;;;;;23.50;16.87;;;;;;;3.78;87.35;98841.72;2142670;83;21310;-85
2021/04/16 00:34:00;;;;;;;24.50;16.05;;;;;;;3.82;87.28;98844.84;2142569;83;22309;-85
2021/04/16 00:37:01;;;;;;;24.98;16.90;;;;;;;3.83;87.32;98846.48;2142303;83;21184;-85
2021/04/16 00:40:04;;;;;;;20.55;14.43;;;;;;;3.84;87.49;98838.61;2142368;83;21141;-84
2021/04/16 00:43:05;;;;;;;24.10;16.27;;;;;;;3.83;87.76;98838.72;2142594;83;21125;-84
2021/04/16 00:46:07;;;;;;;20.10;15.20;;;;;;;3.81;87.65;98836.74;2142346;83;21315;-85
2021/04/16 00:49:08;;;;;;;19.40;14.20;;;;;;;3.75;87.70;98843.30;2142347;83;21326;-86
2021/04/16 00:52:10;;;;;;;24.00;16.00;;;;;;;3.68;88.10;98844.29;2142328;83;21319;-85
2021/04/16 00:55:15;;;;;;;19.85;14.65;;;;;;;3.67;88.08;98838.77;2142585;83;21160;-85
2021/04/16 00:58:17;;;;;;;21.70;14.58;;;;;;;3.65;88.13;98841.13;2142428;83;21597;-85
2021/04/16 01:01:18;;;;;;;24.72;15.58;;;;;;;3.65;88.14;98832.06;2142552;83;21168;-85
2021/04/16 01:04:20;;;;;;;22.82;15.43;;;;;;;3.66;88.15;98834.55;2142784;83;21605;-84
2021/04/16 01:07:22;;;;;;;21.90;15.32;;;;;;;3.66;88.03;98840.20;2142727;83;21184;-85
2021/04/16 01:10:24;;;;;;;25.82;16.62;;;;;;;3.66;88.20;98825.96;2142709;83;21176;-85
2021/04/16 01:13:25;;;;;;;22.62;15.43;;;;;;;3.61;88.17;98832.00;2142790;82;21145;-85
2021/04/16 01:16:31;;;;;;;19.73;13.62;;;;;;;3.59;88.22;98831.32;2142597;83;21633;-86
2021/04/16 01:19:33;;;;;;;22.48;14.15;;;;;;;3.60;88.37;98831.66;2142834;83;21114;-86
2021/04/16 01:22:35;;;;;;;25.50;17.55;;;;;;;3.59;88.49;98830.02;2142867;83;21169;-85
2021/04/16 01:25:36;;;;;;;25.00;17.20;;;;;;;3.61;88.49;98833.30;2142767;83;21208;-84
2021/04/16 01:28:39;;;;;;;22.40;16.73;;;;;;;3.58;88.31;98829.69;2142623;83;21153;-85
2021/04/16 01:31:47;;;;;;;16.32;12.82;;;;;;;3.59;88.57;98831.32;2142533;83;21197;-86
2021/04/16 01:34:45;;;;;;;22.05;15.38;;;;;;;3.57;88.45;98833.23;2142151;83;21169;-86
2021/04/16 01:37:47;;;;;;;22.32;14.28;;;;;;;3.55;88.62;98828.16;2142808;83;21474;-86
2021/04/16 01:40:48;;;;;;;24.15;15.48;;;;;;;3.54;89.00;98827.81;2142868;83;21153;-85
2021/04/16 01:43:50;;;;;;;22.13;14.63;;;;;;;3.55;89.03;98824.27;2143210;83;21322;-83
2021/04/16 01:46:52;;;;;;;24.80;16.95;;;;;;;3.55;88.65;98818.28;2145343;83;21148;-82
2021/04/16 01:49:54;;;;;;;18.87;14.07;;;;;;;3.54;88.63;98820.53;2145505;83;21278;-86
2021/04/16 01:52:56;;;;;;;24.65;17.05;;;;;;;3.54;88.94;98825.70;2142823;83;21177;-85
2021/04/16 01:55:58;;;;;;;23.30;16.20;;;;;;;3.50;88.80;98820.45;2142560;83;21315;-85
2021/04/16 01:59:00;;;;;;;20.17;14.05;;;;;;;3.50;88.82;98816.58;2142701;83;21146;-86
2021/04/16 02:02:02;;;;;;;22.62;14.47;;;;;;;3.46;89.09;98812.59;2142537;83;21724;-85
2021/04/16 02:05:04;;;;;;;18.90;13.20;;;;;;;3.45;89.06;98811.78;2142548;83;21589;-85
2021/04/16 02:08:07;;;;;;;21.40;14.07;;;;;;;3.43;89.21;98802.86;2144497;83;21299;-86
2021/04/16 02:11:09;;;;;;;18.98;14.35;;;;;;;3.43;89.47;98798.16;2143787;83;21723;-86
2021/04/16 02:14:11;;;;;;;19.20;12.90;;;;;;;3.42;89.11;98800.41;2142853;82;21327;-85
2021/04/16 02:17:13;;;;;;;19.57;12.35;;;;;;;3.39;89.34;98794.20;2142462;83;21339;-86
2021/04/16 02:20:15;;;;;;;19.05;13.40;;;;;;;3.39;89.41;98794.20;2142507;83;21632;-85
2021/04/16 02:23:16;;;;;;;19.57;13.95;;;;;;;3.37;89.15;98799.48;2142484;83;21311;-86
2021/04/16 02:26:18;;;;;;;19.80;14.60;;;;;;;3.38;89.30;98796.42;2143102;83;21172;-86
2021/04/16 02:29:20;;;;;;;20.10;13.83;;;;;;;3.36;89.34;98797.86;2142757;83;21169;-85
2021/04/16 02:32:22;;;;;;;17.62;12.50;;;;;;;3.36;89.41;98798.33;2142424;83;21312;-85
2021/04/16 02:35:24;;;;;;;16.52;12.00;;;;;;;3.33;89.60;98793.43;2142784;83;21145;-85
2021/04/16 02:38:26;;;;;;;19.02;14.47;;;;;;;3.32;89.33;98796.50;2142700;83;21201;-86
2021/04/16 02:41:28;;;;;;;16.57;12.40;;;;;;;3.32;89.61;98794.38;2142449;83;21723;-86
2021/04/16 02:44:29;;;;;;;21.33;14.10;;;;;;;3.31;89.45;98794.05;2142883;83;21150;-85
2021/04/16 02:47:31;;;;;;;16.52;12.07;;;;;;;3.31;89.57;98796.63;2142412;83;21287;-85
2021/04/16 02:50:32;;;;;;;23.60;14.43;;;;;;;3.33;89.66;98802.01;2142804;83;21176;-85
2021/04/16 02:53:34;;;;;;;17.52;13.62;;;;;;;3.35;89.38;98797.52;2142560;83;21770;-84
2021/04/16 02:56:36;;;;;;;18.73;13.80;;;;;;;3.40;89.46;98793.25;2142554;83;21327;-85
2021/04/16 02:59:38;;;;;;;23.47;15.13;;;;;;;3.40;89.38;98790.19;2142421;83;21177;-86
2021/04/16 03:02:40;;;;;;;21.40;15.55;;;;;;;3.40;89.48;98788.08;2142688;83;21169;-85
2021/04/16 03:05:41;;;;;;;21.17;15.35;;;;;;;3.38;89.36;98790.80;2142909;83;21715;-85
2021/04/16 03:08:43;;;;;;;17.77;12.60;;;;;;;3.36;89.40;98797.86;2142567;83;21152;-86
2021/04/16 03:11:45;;;;;;;19.20;13.30;;;;;;;3.36;89.72;98793.16;2142661;83;21172;-85
2021/04/16 03:14:47;;;;;;;21.33;14.30;;;;;;;3.36;89.58;98796.56;2162601;81;21224;-86
2021/04/16 03:17:49;;;;;;;21.23;13.32;;;;;;;3.37;89.51;98792.20;2168295;82;21181;-85
2021/04/16 03:20:50;;;;;;;24.85;15.70;;;;;;;3.36;89.46;98800.44;2168449;81;21172;-85
2021/04/16 03:23:52;;;;;;;23.52;14.00;;;;;;;3.33;89.72;98794.72;2168398;82;21180;-85
2021/04/16 03:26:54;;;;;;;24.05;15.05;;;;;;;3.32;89.61;98786.14;2168035;82;21142;-85
2021/04/16 03:29:56;;;;;;;18.62;13.40;;;;;;;3.30;89.52;98789.34;2168027;82;21148;-86
2021/04/16 03:32:58;;;;;;;26.25;16.80;;;;;;;3.28;89.71;98789.92;2168162;82;21624;-87
2021/04/16 03:35:59;;;;;;;25.00;16.32;;;;;;;3.29;89.62;98786.86;2168111;82;21586;-87
2021/04/16 03:39:02;;;;;;;27.10;16.42;;;;;;;3.32;89.64;98791.80;2168109;82;21584;-87
2021/04/16 03:42:03;;;;;;;21.65;13.28;;;;;;;3.27;90.09;98781.00;2168260;82;21156;-87
2021/04/16 03:45:06;;;;;;;21.12;14.98;;;;;;;3.30;89.87;98785.94;2168385;82;21122;-86
2021/04/16 03:48:08;;;;;;;21.73;14.23;;;;;;;3.31;89.80;98793.56;2168221;81;21159;-86
2021/04/16 03:51:10;;;;;;;27.87;17.00;;;;;;;3.32;89.76;98794.38;2168085;82;21156;-86
2021/04/16 03:54:12;;;;;;;23.05;15.03;;;;;;;3.30;89.75;98788.53;2168006;82;21149;-87
2021/04/16 03:57:14;;;;;;;25.50;15.68;;;;;;;3.29;89.79;98790.74;2168436;81;21286;-86
2021/04/16 04:00:15;;;;;;;21.45;14.10;;;;;;;3.29;89.53;98792.89;2168316;82;21169;-85
2021/04/16 04:03:18;;;;;;;22.35;14.33;;;;;;;3.28;89.73;98792.52;2167978;82;21162;-85
2021/04/16 04:06:20;;;;;;;23.35;14.65;;;;;;;3.28;89.64;98787.81;2167971;82;21117;-86
2021/04/16 04:09:22;;;;;;;25.52;15.40;;;;;;;3.26;89.90;98791.02;2167985;82;21140;-85
2021/04/16 04:12:23;;;;;;;22.98;14.85;;;;;;;3.26;89.58;98797.48;2168056;82;21143;-86
2021/04/16 04:15:26;;;;;;;23.05;15.30;;;;;;;3.28;89.76;98805.45;2144759;81;21168;-86
2021/04/16 04:18:27;;;;;;;25.30;15.38;;;;;;;3.29;89.56;98798.06;2142573;83;21303;-86
2021/04/16 04:21:29;;;;;;;18.82;13.32;;;;;;;3.33;89.55;98794.25;2142652;83;21294;-86
2021/04/16 04:24:31;;;;;;;24.30;15.00;;;;;;;3.31;89.41;98805.69;2142341;83;21162;-87
2021/04/16 04:27:34;;;;;;;26.85;15.68;;;;;;;3.31;89.49;98806.50;2142569;83;21355;-85
2021/04/16 04:30:36;;;;;;;19.42;11.80;;;;;;;3.32;89.49;98808.62;2142410;83;21283;-85
2021/04/16 04:33:37;;;;;;;20.85;12.90;;;;;;;3.29;89.44;98807.12;2142502;83;21287;-86
2021/04/16 04:36:39;;;;;;;21.27;12.85;;;;;;;3.31;89.66;98803.10;2142601;83;21320;-87
2021/04/16 04:39:43;;;;;;;17.98;10.82;;;;;;;3.29;89.67;98803.23;2142644;83;21323;-86
2021/04/16 04:42:45;;;;;;;20.88;12.93;;;;;;;3.23;89.72;98802.94;2142613;83;21787;-85
2021/04/16 04:45:47;;;;;;;17.32;10.60;;;;;;;3.23;89.91;98797.28;2142384;83;21173;-85
2021/04/16 04:48:49;;;;;;;23.42;13.98;;;;;;;3.22;89.99;98800.82;2142404;83;21332;-85
2021/04/16 04:51:51;;;;;;;18.32;12.65;;;;;;;3.23;89.97;98802.45;2142371;83;21798;-85
2021/04/16 04:54:52;;;;;;;19.05;12.98;;;;;;;3.25;89.93;98807.02;2142390;83;21327;-85
2021/04/16 04:57:54;;;;;;;21.33;13.50;;;;;;;3.25;89.92;98810.09;2142299;83;21707;-85
2021/04/16 05:00:56;;;;;;;21.95;13.55;;;;;;;3.25;89.98;98795.38;2142344;83;21287;-86
2021/04/16 05:03:57;;;;;;;23.73;16.10;;;;;;;3.28;89.88;98795.10;2142312;83;21728;-85
2021/04/16 05:06:59;;;;;;;22.52;12.75;;;;;;;3.32;89.86;98800.38;2142424;83;21276;-85
2021/04/16 05:10:01;;;;;;;19.05;11.08;;;;;;;3.32;89.86;98795.20;2142257;83;21323;-85
2021/04/16 05:13:02;;;;;;;21.02;12.82;;;;;;;3.31;89.95;98786.28;2142305;83;21312;-85
2021/04/16 05:16:04;;;;;;;17.67;10.53;;;;;;;3.30;89.83;98792.41;2142616;83;21691;-85
2021/04/16 05:19:07;;;;;;;19.65;12.47;;;;;;;3.30;90.05;98784.16;2142308;83;21331;-86
2021/04/16 05:22:08;;;;;;;21.93;14.95;;;;;;;3.32;90.12;98786.62;2142372;83;21324;-86
2021/04/16 05:25:11;;;;;;;19.62;13.28;;;;;;;3.32;90.13;98782.73;2142600;83;21323;-84
2021/04/16 05:28:13;;;;;;;19.15;12.25;;;;;;;3.31;90.08;98779.81;2142449;83;21795;-83
2021/04/16 05:31:14;;;;;;;20.77;12.73;;;;;;;3.31;90.47;98787.09;2142366;83;21323;-84
2021/04/16 05:34:17;;;;;;;22.17;13.70;;;;;;;3.29;90.39;98778.65;2142572;83;21209;-85
2021/04/16 05:37:18;;;;;;;20.40;13.43;;;;;;;3.30;90.45;98781.58;2142683;83;21185;-84
2021/04/16 05:40:20;;;;;;;18.50;12.78;;;;;;;3.30;90.47;98785.46;2142473;83;21327;-85
2021/04/16 05:43:23;;;;;;;16.37;12.85;;;;;;;3.31;90.71;98783.69;2121674;83;21347;-85
2021/04/16 05:46:25;;;;;;;20.82;13.62;;;;;;;3.32;90.66;98779.67;2142432;83;21145;-85
2021/04/16 05:49:27;;;;;;;23.45;14.33;;;;;;;3.36;90.68;98781.03;2142411;83;21188;-86
2021/04/16 05:52:29;;;;;;;13.78;10.50;;;;;;;3.39;90.65;98770.91;2142852;83;21173;-85
2021/04/16 05:55:31;;;;;;;19.60;13.48;;;;;;;3.44;90.90;98764.84;2141329;82;21326;-84
2021/04/16 05:58:33;;;;;;;15.93;11.88;;;;;;;3.45;90.65;98765.66;2141630;83;21688;-86
2021/04/16 06:01:34;;;;;;;18.73;12.58;;;;;;;3.43;90.71;98764.02;2142407;83;21331;-86
2021/04/16 06:04:36;;;;;;;17.07;11.88;;;;;;;3.49;90.55;98768.34;2143277;83;21736;-83
2021/04/16 06:07:38;;;;;;;23.07;14.70;;;;;;;3.52;90.48;98765.00;2142684;83;21332;-82
2021/04/16 06:10:40;;;;;;;19.02;13.60;;;;;;;3.56;90.57;98767.65;2143150;83;21731;-84
2021/04/16 06:13:42;;;;;;;18.07;13.48;;;;;;;3.59;90.71;98756.23;2143109;83;21157;-84
2021/04/16 06:16:44;;;;;;;16.48;11.78;;;;;;;3.60;90.55;98755.27;2168240;82;21140;-84
2021/04/16 06:19:45;;;;;;;21.73;13.28;;;;;;;3.61;90.63;98761.61;2168277;82;21142;-84
2021/04/16 06:22:47;;;;;;;21.25;14.43;;;;;;;3.63;90.53;98765.35;2168289;82;21759;-90
2021/04/16 06:25:49;;;;;;;16.30;12.55;;;;;;;3.63;90.61;98766.17;2168225;82;21168;-87
2021/04/16 06:28:50;;;;;;;23.55;16.10;;;;;;;3.67;90.59;98764.15;2168458;82;21148;-87
2021/04/16 06:31:52;;;;;;;23.18;16.00;;;;;;;3.69;90.63;98774.70;2168153;82;21165;-85
2021/04/16 06:34:53;;;;;;;19.57;12.33;;;;;;;3.72;90.62;98774.91;2168117;82;21138;-89
2021/04/16 06:37:56;;;;;;;20.40;13.98;;;;;;;3.77;90.67;98771.92;2168303;81;21158;-86
2021/04/16 06:40:58;;;;;;;20.85;14.43;;;;;;;3.80;90.55;98773.77;2168560;82;21294;-86
2021/04/16 06:43:59;;;;;;;20.52;15.72;;;;;;;3.83;90.68;98777.36;2169004;82;21284;-86
2021/04/16 06:47:01;;;;;;;17.57;12.37;;;;;;;3.83;90.65;98783.02;2168149;82;21127;-86
2021/04/16 06:50:03;;;;;;;22.58;15.15;;;;;;;3.83;90.91;98779.95;2168276;81;21175;-87
2021/04/16 06:53:05;;;;;;;21.15;15.08;;;;;;;3.86;90.62;98791.84;2168093;82;21608;-86
2021/04/16 06:56:07;;;;;;;20.12;14.95;;;;;;;3.88;90.63;98778.27;2168347;82;21455;-80
2021/04/16 06:59:09;;;;;;;23.57;15.88;;;;;;;3.87;90.75;98778.75;2168097;82;21187;-82
2021/04/16 07:02:10;;;;;;;23.15;16.40;;;;;;;3.85;90.80;98780.66;2168400;82;21640;-83
2021/04/16 07:05:12;;;;;;;19.85;14.58;;;;;;;3.89;90.71;98781.20;2168118;82;21174;-82
2021/04/16 07:08:14;;;;;;;22.60;16.42;;;;;;;3.92;90.80;98776.55;2168114;82;21181;-82
2021/04/16 07:11:16;;;;;;;22.07;15.75;;;;;;;3.94;90.58;98781.63;2168471;81;21303;-82
2021/04/16 07:14:18;;;;;;;19.07;14.05;;;;;;;4.00;90.62;98786.24;2167644;81;21290;-82
2021/04/16 07:17:20;;;;;;;17.30;13.48;;;;;;;4.06;90.48;98784.89;2142765;83;22221;-81
2021/04/16 07:20:22;;;;;;;17.90;13.40;;;;;;;4.05;90.44;98781.48;2142455;83;21153;-82
2021/04/16 07:23:24;;;;;;;16.50;12.95;;;;;;;4.04;90.42;98786.80;2142777;83;21117;-82
2021/04/16 07:26:25;;;;;;;17.40;14.60;;;;;;;4.06;90.48;98792.19;2142430;83;21287;-82
2021/04/16 07:29:27;;;;;;;18.10;14.23;;;;;;;4.08;90.50;98782.50;2142541;83;21601;-82
2021/04/16 07:32:30;;;;;;;21.73;15.32;;;;;;;4.10;90.61;98788.36;2142765;83;21143;-83
2021/04/16 07:35:32;;;;;;;20.08;14.65;;;;;;;4.09;90.51;98794.97;2142644;83;21192;-82
2021/04/16 07:38:36;;;;;;;18.70;13.93;;;;;;;4.11;90.71;98791.28;2142734;83;21601;-82
2021/04/16 07:41:38;;;;;;;19.73;13.88;;;;;;;4.14;90.71;98794.10;2142442;83;21185;-81
2021/04/16 07:44:40;;;;;;;23.40;16.42;;;;;;;4.14;90.71;98786.33;2142568;83;21181;-82
2021/04/16 07:47:42;;;;;;;15.45;13.43;;;;;;;4.18;90.83;98785.09;2142380;83;21204;-83
2021/04/16 07:50:44;;;;;;;19.30;14.75;;;;;;;4.22;90.83;98787.28;2142731;83;21309;-82
2021/04/16 07:53:46;;;;;;;24.30;16.62;;;;;;;4.26;90.80;98789.11;2142739;83;21150;-82
2021/04/16 07:56:48;;;;;;;20.10;15.80;;;;;;;4.33;90.71;98790.68;2142580;83;21578;-82
2021/04/16 07:59:50;;;;;;;19.48;15.05;;;;;;;4.38;90.63;98781.99;2142640;83;21731;-87
2021/04/16 08:02:53;;;;;;;21.23;15.35;;;;;;;4.45;90.58;98796.05;2142402;83;21178;-81
2021/04/16 08:05:55;;;;;;;23.18;17.20;;;;;;;4.48;90.38;98784.94;2144440;83;21148;-84
2021/04/16 08:08:57;;;;;;;20.88;15.43;;;;;;;4.55;90.41;98786.47;2142751;83;21331;-81
2021/04/16 08:11:59;;;;;;;21.40;15.18;;;;;;;4.56;90.29;98785.03;2142569;83;21587;-80
2021/04/16 08:15:01;;;;;;;19.45;16.02;;;;;;;4.59;90.27;98796.92;2142598;83;21315;-81
2021/04/16 08:18:03;;;;;;;18.82;14.70;;;;;;;4.62;90.35;98789.34;2142322;83;21315;-80
2021/04/16 08:21:05;;;;;;;19.87;15.60;;;;;;;4.67;90.23;98789.27;2142422;83;21324;-82
2021/04/16 08:24:07;;;;;;;23.32;17.67;;;;;;;4.72;90.24;98790.94;2142518;83;21815;-80
2021/04/16 08:27:08;;;;;;;20.23;14.23;;;;;;;4.80;90.25;98795.44;2142683;83;21621;-88
2021/04/16 08:30:10;;;;;;;26.62;18.50;;;;;;;4.87;89.89;98796.52;2142789;83;21327;-83
2021/04/16 08:33:12;;;;;;;26.17;18.32;;;;;;;4.94;89.96;98801.48;2142638;83;21283;-80
2021/04/16 08:36:14;;;;;;;20.97;16.37;;;;;;;5.00;89.85;98795.70;2142408;83;21138;-79
2021/04/16 08:39:15;;;;;;;25.65;19.42;;;;;;;5.09;89.68;98799.23;2142353;83;21315;-80
2021/04/16 08:42:17;;;;;;;20.17;14.30;;;;;;;5.19;89.65;98792.70;2142615;83;21739;-83
2021/04/16 08:45:22;;;;;;;23.57;15.53;;;;;;;5.24;89.08;98793.92;2142384;83;21271;-82
2021/04/16 08:48:23;;;;;;;21.00;15.50;;;;;;;5.26;88.97;98793.77;2142390;83;21295;-83
2021/04/16 08:51:25;;;;;;;13.90;10.93;;;;;;;5.28;88.97;98784.87;2142333;83;21292;-81
2021/04/16 08:54:27;;;;;;;16.85;13.03;;;;;;;5.31;88.52;98796.77;2142326;83;21157;-83
2021/04/16 08:57:29;;;;;;;17.30;12.45;;;;;;;5.36;88.75;98797.95;2142334;83;21319;-81
2021/04/16 09:00:31;;;;;;;17.40;12.75;;;;;;;5.41;88.58;98794.94;2142415;83;21315;-83
2021/04/16 09:03:33;;;;;;;19.92;15.03;;;;;;;5.45;88.68;98785.88;2142472;83;21172;-84
2021/04/16 09:06:34;;;;;;;19.02;13.68;;;;;;;5.52;88.43;98797.33;2142209;83;21352;-86
2021/04/16 09:09:36;;;;;;;11.38;9.23;;;;;;;5.56;88.45;98797.84;2142492;83;21763;-84
2021/04/16 09:12:38;;;;;;;16.50;12.40;;;;;;;5.59;87.26;98788.48;2165694;82;21180;-82
2021/04/16 09:15:40;;;;;;;17.07;12.23;;;;;;;5.72;87.82;98790.23;2145838;83;21161;-84
2021/04/16 09:18:43;;;;;;;14.10;11.28;;;;;;;5.74;87.06;98780.50;2149080;83;21327;-85
2021/04/16 09:21:44;;;;;;;11.95;8.23;;;;;;;5.75;87.59;98780.84;2149328;83;21775;-87
2021/04/16 09:24:46;;;;;;;16.35;11.78;;;;;;;5.76;86.54;98790.75;2159956;82;21808;-83
2021/04/16 09:27:49;;;;;;;12.90;10.45;;;;;;;5.71;87.28;98796.39;2160177;82;21156;-84
2021/04/16 09:30:51;;;;;;;11.08;8.70;;;;;;;5.77;86.44;98793.22;2177737;82;21279;-84
2021/04/16 09:33:55;;;;;;;14.80;9.95;;;;;;;5.76;85.89;98795.94;2159951;82;21302;-84
2021/04/16 09:36:57;;;;;;;14.18;9.80;;;;;;;5.77;86.41;98804.91;2160261;82;21336;-84
2021/04/16 09:40:00;;;;;;;11.18;8.13;;;;;;;5.80;87.21;98801.20;2159898;82;21285;-84
2021/04/16 09:43:02;;;;;;;13.28;10.28;;;;;;;5.81;85.93;98797.63;2160124;82;21171;-83
2021/04/16 09:46:04;;;;;;;10.38;8.20;;;;;;;5.81;86.23;98802.34;2160084;82;21321;-85
2021/04/16 09:49:05;;;;;;;13.15;9.90;;;;;;;5.80;85.68;98801.20;2177916;82;21252;-83
2021/04/16 09:52:08;;;;;;;14.68;9.98;;;;;;;5.85;85.82;98801.55;2160333;82;21154;-85
2021/04/16 09:55:09;;;;;;;12.55;8.45;;;;;;;5.86;85.90;98796.23;2159945;82;21277;-85
2021/04/16 09:58:11;;;;;;;13.20;9.55;;;;;;;5.84;85.36;98798.14;2159925;82;21301;-85
2021/04/16 10:01:13;;;;;;;11.35;8.33;;;;;;;5.83;85.38;98802.19;2160147;82;21753;-85
2021/04/16 10:04:16;;;;;;;9.53;8.33;;;;;;;5.76;85.30;98801.14;2160120;82;21336;-86
2021/04/16 10:07:18;;;;;;;8.03;7.22;;;;;;;5.73;85.36;98800.95;2160138;82;21337;-85
2021/04/16 10:10:20;;;;;;;9.25;7.97;;;;;;;5.68;85.50;98801.89;2160131;82;21316;-87
2021/04/16 10:13:22;;;;;;;10.60;7.90;;;;;;;5.65;86.01;98806.88;2160262;82;21284;-84
2021/04/16 10:16:23;;;;;;;9.30;8.30;;;;;;;5.64;85.58;98802.65;2155887;82;21593;-84
2021/04/16 10:19:25;;;;;;;11.78;9.13;;;;;;;5.63;85.96;98806.70;2143366;83;21162;-86
2021/04/16 10:22:27;;;;;;;15.70;11.03;;;;;;;5.66;86.00;98800.72;2154082;83;21636;-85
2021/04/16 12:38:22;;;;;;;14.25;11.03;;;;;;;4.96;86.37;98850.16;2145236;83;21558;-81
2021/04/16 12:41:19;;;;;;;18.32;14.33;;;;;;;4.96;86.62;98857.13;2145297;83;21737;-81
2021/04/16 12:44:21;;;;;;;18.52;14.33;;;;;;;4.92;86.56;98852.68;2145260;83;21589;-87
2021/04/16 12:47:23;;;;;;;14.90;11.08;;;;;;;4.87;86.61;98849.70;2145000;83;21129;-84
2021/04/16 12:50:25;;;;;;;15.72;12.58;;;;;;;4.84;86.73;98843.48;2146159;83;21152;-89
2021/04/16 12:53:27;;;;;;;12.23;10.28;;;;;;;4.82;86.78;98845.40;2144963;83;21181;-84
2021/04/16 12:56:29;;;;;;;24.63;17.60;;;;;;;4.78;86.79;98848.77;2144985;83;21176;-84
2021/04/16 12:59:30;;;;;;;23.98;16.60;;;;;;;4.80;86.96;98852.03;2145055;83;21184;-83
2021/04/16 13:02:32;;;;;;;22.62;16.02;;;;;;;4.85;86.93;98863.30;2168246;82;21267;-83
2021/04/16 13:05:34;;;;;;;27.75;17.77;;;;;;;4.88;86.95;98857.01;2168793;82;21316;-82
2021/04/16 13:08:36;;;;;;;28.32;17.62;;;;;;;4.90;86.80;98860.27;2168333;82;21187;-82
2021/04/16 13:11:38;;;;;;;21.27;14.30;;;;;;;4.87;86.77;98850.19;2168379;82;21727;-86
2021/04/16 13:14:39;;;;;;;25.05;15.65;;;;;;;4.88;87.06;98851.82;2168348;82;21154;-84
2021/04/16 13:17:42;;;;;;;23.92;17.48;;;;;;;4.88;87.09;98842.73;2168198;81;21148;-83
2021/04/16 13:20:44;;;;;;;24.20;17.48;;;;;;;4.81;87.14;98841.98;2168295;82;21176;-83
2021/04/16 13:23:46;;;;;;;27.75;17.67;;;;;;;4.81;87.52;98844.58;2168168;82;21260;-82
2021/04/16 13:26:48;;;;;;;21.90;17.37;;;;;;;4.85;87.76;98842.55;2168105;81;21156;-83
2021/04/16 13:29:50;;;;;;;18.35;14.20;;;;;;;4.85;87.60;98844.66;2168247;82;21587;-84
2021/04/16 13:32:52;;;;;;;19.75;15.15;;;;;;;4.85;88.04;98840.77;2167972;82;21331;-83
2021/04/16 13:35:55;;;;;;;20.43;15.35;;;;;;;4.77;87.80;98836.75;2168586;82;21187;-88
2021/04/16 13:38:57;;;;;;;17.07;12.75;;;;;;;4.73;87.82;98839.75;2168096;82;21208;-85
2021/04/16 13:41:58;;;;;;;27.10;17.55;;;;;;;4.69;88.18;98836.63;2168701;82;21341;-84
2021/04/16 13:45:00;;;;;;;30.48;19.27;;;;;;;4.67;88.16;98845.03;2168374;82;21576;-82
2021/04/16 13:48:02;;;;;;;27.82;20.23;;;;;;;4.67;88.14;98854.11;2168172;82;21199;-83
2021/04/16 13:51:04;;;;;;;22.55;16.48;;;;;;;4.70;88.35;98850.41;2168395;82;21138;-82
2021/04/16 13:54:06;;;;;;;24.92;18.45;;;;;;;4.67;88.32;98861.08;2168225;81;21158;-83
2021/04/16 13:57:07;;;;;;;36.45;21.97;;;;;;;4.64;88.38;98849.66;2168281;81;21166;-84
2021/04/16 14:00:09;;;;;;;29.52;19.57;;;;;;;4.62;88.56;98862.77;2168585;82;21281;-86
2021/04/16 14:03:11;;;;;;;31.65;20.68;;;;;;;4.62;88.51;98854.99;2168027;82;21184;-86
2021/04/16 14:06:14;;;;;;;35.45;24.85;;;;;;;4.62;88.49;98856.77;2168288;82;21144;-84
2021/04/16 14:09:16;;;;;;;34.38;20.90;;;;;;;4.65;88.75;98857.30;2168165;82;21147;-85
2021/04/16 14:12:17;;;;;;;23.62;15.13;;;;;;;4.69;88.74;98857.37;2168541;82;21163;-85
2021/04/16 14:15:19;;;;;;;26.62;19.67;;;;;;;4.69;88.22;98855.27;2168090;81;21563;-85
2021/04/16 14:18:21;;;;;;;24.27;17.60;;;;;;;4.75;88.20;98850.80;2168196;82;21641;-84
2021/04/16 14:21:23;;;;;;;20.25;14.90;;;;;;;4.86;88.15;98854.56;2168326;82;21620;-84
2021/04/16 14:24:25;;;;;;;26.75;17.27;;;;;;;4.94;87.67;98851.23;2168240;82;21155;-84
2021/04/16 14:27:27;;;;;;;31.97;21.40;;;;;;;4.94;87.51;98852.53;2168680;82;21347;-82
2021/04/16 14:30:29;;;;;;;26.02;18.70;;;;;;;4.94;87.60;98863.77;2168412;82;21161;-82
2021/04/16 14:33:31;;;;;;;25.15;16.35;;;;;;;4.95;87.33;98865.39;2168624;81;21199;-84
2021/04/16 14:36:33;;;;;;;20.60;13.20;;;;;;;4.92;87.07;98864.84;2168312;81;21180;-83
2021/04/16 14:39:35;;;;;;;19.57;12.88;;;;;;;4.83;86.96;98860.82;2168320;82;21182;-84
2021/04/16 14:42:37;;;;;;;21.80;15.95;;;;;;;4.75;87.02;98874.15;2168095;82;21178;-84
2021/04/16 14:45:39;;;;;;;25.97;19.23;;;;;;;4.70;87.41;98877.17;2168120;82;21179;-89
2021/04/16 14:48:41;;;;;;;25.62;17.90;;;;;;;4.72;87.53;98871.36;2168426;82;21199;-85
2021/04/16 14:51:44;;;;;;;22.42;15.60;;;;;;;4.73;87.62;98878.18;2168088;82;21136;-85
2021/04/16 14:54:46;;;;;;;22.65;15.68;;;;;;;4.74;87.70;98880.30;2167921;81;21161;-84
2021/04/16 14:57:48;;;;;;;15.40;11.57;;;;;;;4.76;87.44;98877.11;2168062;82;21613;-84
2021/04/16 15:00:50;;;;;;;20.37;14.05;;;;;;;4.72;87.08;98886.11;2167945;82;21109;-83
2021/04/16 15:03:51;;;;;;;21.60;16.35;;;;;;;4.70;87.33;98895.33;2168098;82;21141;-83
2021/04/16 15:06:53;;;;;;;20.05;14.55;;;;;;;4.75;87.54;98887.12;2168448;81;21145;-84
2021/04/16 15:09:55;;;;;;;21.55;15.45;;;;;;;4.80;87.49;98892.24;2168642;82;21136;-85
2021/04/16 15:12:57;;;;;;;18.70;14.33;;;;;;;4.79;87.65;98893.69;2168775;82;21316;-85
2021/04/16 15:16:00;;;;;;;19.00;13.15;;;;;;;4.76;87.53;98889.60;2168523;81;21169;-85
2021/04/16 15:19:02;;;;;;;16.23;11.43;;;;;;;4.70;87.30;98891.92;2145194;83;21180;-84
2021/04/16 15:22:04;;;;;;;20.48;14.07;;;;;;;4.67;87.56;98886.53;2168266;82;21153;-85
2021/04/16 15:25:06;;;;;;;15.83;11.90;;;;;;;4.61;87.09;98890.97;2168187;82;21180;-83
2021/04/16 15:28:08;;;;;;;24.77;17.23;;;;;;;4.53;87.51;98887.75;2168124;82;21605;-83
2021/04/16 15:31:10;;;;;;;26.12;17.67;;;;;;;4.52;87.68;98888.71;2168445;81;21142;-83
2021/04/16 15:47:14;;;;;;;16.70;12.07;;;;;;;4.48;88.18;98887.36;2168033;82;21172;-84
2021/04/16 15:50:15;;;;;;;15.15;12.30;;;;;;;4.43;88.08;98886.94;2168033;82;21147;-84
2021/04/16 15:53:17;;;;;;;20.68;14.45;;;;;;;4.43;88.39;98887.42;2168203;81;21164;-83
2021/04/16 15:56:19;;;;;;;21.23;14.80;;;;;;;4.43;88.52;98887.42;2168105;82;21187;-85
2021/04/16 15:59:21;;;;;;;19.32;14.85;;;;;;;4.42;88.47;98886.60;2168343;82;21122;-83
2021/04/16 16:02:23;;;;;;;17.25;14.28;;;;;;;4.40;88.51;98883.33;2168333;82;21120;-83
2021/04/16 16:05:25;;;;;;;17.00;13.55;;;;;;;4.40;88.55;98883.33;2168558;82;21192;-83
2021/04/16 16:08:27;;;;;;;22.90;15.30;;;;;;;4.36;88.75;98892.80;2168236;82;21169;-83
2021/04/16 16:11:34;;;;;;;15.93;13.15;;;;;;;4.34;88.80;98886.94;2168106;82;21150;-84
2021/04/16 16:14:34;;;;;;;21.15;14.53;;;;;;;4.31;88.87;98881.55;2167987;81;22243;-84
2021/04/16 16:17:36;;;;;;;24.07;15.83;;;;;;;4.26;89.03;98888.91;2168157;82;21140;-87
2021/04/16 16:20:38;;;;;;;32.98;21.90;;;;;;;4.24;89.38;98886.93;2168553;82;21306;-82
2021/04/16 16:23:41;;;;;;;27.80;17.75;;;;;;;4.25;89.29;98887.27;2168313;82;21181;-84
2021/04/16 16:26:43;;;;;;;24.00;16.20;;;;;;;4.23;89.36;98891.78;2168320;82;21572;-81
2021/04/16 16:29:45;;;;;;;17.17;13.38;;;;;;;4.22;89.55;98887.07;2168027;82;21163;-82
2021/04/16 16:32:47;;;;;;;22.87;15.90;;;;;;;4.18;89.35;98884.87;2168200;82;21589;-81